sensor_id;sensor_type;location;lat;lon;timestamp;P1;durP1;ratioP1;P2;durP2;ratioP2
16520;SDS011;8373;48.110;11.522;2022-10-16T04:01:16;7.60;;;3.20;;
16520;SDS011;8373;48.110;11.522;2022-10-16T04:03:43;10.20;;;3.50;;
16520;SDS011;8373;48.110;11.522;2022-10-16T04:06:10;11.60;;;4.30;;
16520;SDS011;8373;48.110;11.522;2022-10-16T04:08:37;11.90;;;3.20;;
16520;SDS011;8373;48.110;11.522;2022-10-16T04:11:04;10.23;;;3.60;;
16520;SDS011;8373;48.110;11.522;2022-10-16T04:13:31;9.27;;;3.37;;
16520;SDS011;8373;48.110;11.522;2022-10-16T04:15:58;12.03;;;3.33;;
16520;SDS011;8373;48.110;11.522;2022-10-16T04:18:27;10.03;;;4.00;;
16520;SDS011;8373;48.110;11.522;2022-10-16T04:20:54;11.20;;;3.63;;
16520;SDS011;8373;48.110;11.522;2022-10-16T04:23:21;14.30;;;4.33;;
16520;SDS011;8373;48.110;11.522;2022-10-16T04:25:48;12.00;;;3.70;;
16520;SDS011;8373;48.110;11.522;2022-10-16T04:28:15;9.10;;;3.43;;
16520;SDS011;8373;48.110;11.522;2022-10-16T04:30:42;7.57;;;3.33;;
16520;SDS011;8373;48.110;11.522;2022-10-16T04:33:09;9.23;;;3.30;;
16520;SDS011;8373;48.110;11.522;2022-10-16T04:35:39;7.00;;;2.90;;
16520;SDS011;8373;48.110;11.522;2022-10-16T04:38:06;10.80;;;3.90;;
16520;SDS011;8373;48.110;11.522;2022-10-16T04:40:33;9.60;;;4.07;;
16520;SDS011;8373;48.110;11.522;2022-10-16T04:43:01;7.60;;;3.40;;
16520;SDS011;8373;48.110;11.522;2022-10-16T04:45:28;12.50;;;3.80;;
16520;SDS011;8373;48.110;11.522;2022-10-16T04:47:56;9.63;;;4.37;;
16520;SDS011;8373;48.110;11.522;2022-10-16T04:50:23;8.77;;;3.10;;
16520;SDS011;8373;48.110;11.522;2022-10-16T04:52:52;11.03;;;4.73;;
16520;SDS011;8373;48.110;11.522;2022-10-16T04:55:19;8.73;;;3.60;;
16520;SDS011;8373;48.110;11.522;2022-10-16T04:57:46;11.60;;;4.13;;
16520;SDS011;8373;48.110;11.522;2022-10-16T05:00:13;12.47;;;4.40;;
16520;SDS011;8373;48.110;11.522;2022-10-16T05:02:40;9.63;;;3.77;;
16520;SDS011;8373;48.110;11.522;2022-10-16T05:05:07;9.40;;;3.23;;
16520;SDS011;8373;48.110;11.522;2022-10-16T05:07:34;6.70;;;2.90;;
16520;SDS011;8373;48.110;11.522;2022-10-16T05:10:02;9.17;;;3.67;;
16520;SDS011;8373;48.110;11.522;2022-10-16T05:12:30;9.63;;;3.60;;
16520;SDS011;8373;48.110;11.522;2022-10-16T05:14:57;9.23;;;3.60;;
16520;SDS011;8373;48.110;11.522;2022-10-16T05:17:24;10.13;;;3.80;;
16520;SDS011;8373;48.110;11.522;2022-10-16T05:19:51;17.70;;;3.20;;
16520;SDS011;8373;48.110;11.522;2022-10-16T05:22:18;9.97;;;3.93;;
16520;SDS011;8373;48.110;11.522;2022-10-16T05:24:45;11.50;;;4.30;;
16520;SDS011;8373;48.110;11.522;2022-10-16T05:27:13;8.83;;;3.60;;
16520;SDS011;8373;48.110;11.522;2022-10-16T05:29:44;9.63;;;3.30;;
16520;SDS011;8373;48.110;11.522;2022-10-16T05:32:12;9.20;;;3.97;;
16520;SDS011;8373;48.110;11.522;2022-10-16T05:34:39;9.43;;;3.87;;
16520;SDS011;8373;48.110;11.522;2022-10-16T05:37:06;12.60;;;4.20;;
16520;SDS011;8373;48.110;11.522;2022-10-16T05:39:33;12.03;;;4.03;;
16520;SDS011;8373;48.110;11.522;2022-10-16T05:42:00;11.80;;;4.43;;
16520;SDS011;8373;48.110;11.522;2022-10-16T05:44:28;17.73;;;5.27;;
16520;SDS011;8373;48.110;11.522;2022-10-16T05:46:55;10.33;;;3.60;;
16520;SDS011;8373;48.110;11.522;2022-10-16T05:49:22;15.90;;;4.23;;
16520;SDS011;8373;48.110;11.522;2022-10-16T05:51:49;10.07;;;3.87;;
16520;SDS011;8373;48.110;11.522;2022-10-16T05:54:16;11.23;;;4.07;;
16520;SDS011;8373;48.110;11.522;2022-10-16T05:56:43;8.67;;;3.10;;
16520;SDS011;8373;48.110;11.522;2022-10-16T05:59:10;10.47;;;3.93;;
16520;SDS011;8373;48.110;11.522;2022-10-16T06:01:38;9.60;;;4.30;;
16520;SDS011;8373;48.110;11.522;2022-10-16T06:04:05;9.47;;;4.17;;
16520;SDS011;8373;48.110;11.522;2022-10-16T06:06:32;8.20;;;3.70;;
16520;SDS011;8373;48.110;11.522;2022-10-16T06:09:01;10.17;;;4.30;;
16520;SDS011;8373;48.110;11.522;2022-10-16T06:11:30;12.00;;;4.17;;
16520;SDS011;8373;48.110;11.522;2022-10-16T06:13:59;14.20;;;3.87;;
16520;SDS011;8373;48.110;11.522;2022-10-16T06:16:31;11.07;;;3.57;;
16520;SDS011;8373;48.110;11.522;2022-10-16T06:19:00;15.57;;;3.97;;
16520;SDS011;8373;48.110;11.522;2022-10-16T06:21:29;10.17;;;4.67;;
16520;SDS011;8373;48.110;11.522;2022-10-16T06:23:56;15.10;;;4.27;;
16520;SDS011;8373;48.110;11.522;2022-10-16T06:26:24;14.20;;;4.20;;
16520;SDS011;8373;48.110;11.522;2022-10-16T06:28:53;9.87;;;4.40;;
16520;SDS011;8373;48.110;11.522;2022-10-16T06:31:21;12.00;;;4.30;;
16520;SDS011;8373;48.110;11.522;2022-10-16T06:33:52;12.00;;;4.60;;
16520;SDS011;8373;48.110;11.522;2022-10-16T06:36:21;12.03;;;4.73;;
16520;SDS011;8373;48.110;11.522;2022-10-16T06:38:49;9.40;;;4.53;;
16520;SDS011;8373;48.110;11.522;2022-10-16T06:41:17;11.07;;;5.17;;
16520;SDS011;8373;48.110;11.522;2022-10-16T06:43:46;10.77;;;4.53;;
16520;SDS011;8373;48.110;11.522;2022-10-16T06:46:14;8.43;;;3.57;;
16520;SDS011;8373;48.110;11.522;2022-10-16T06:48:42;12.30;;;5.10;;
16520;SDS011;8373;48.110;11.522;2022-10-16T06:51:10;13.63;;;3.70;;
16520;SDS011;8373;48.110;11.522;2022-10-16T06:53:40;11.67;;;4.67;;
16520;SDS011;8373;48.110;11.522;2022-10-16T06:56:08;10.50;;;4.43;;
16520;SDS011;8373;48.110;11.522;2022-10-16T06:58:37;11.13;;;4.20;;
16520;SDS011;8373;48.110;11.522;2022-10-16T07:01:04;25.03;;;4.37;;
16520;SDS011;8373;48.110;11.522;2022-10-16T07:03:32;9.90;;;4.37;;
16520;SDS011;8373;48.110;11.522;2022-10-16T07:06:01;12.50;;;5.00;;
16520;SDS011;8373;48.110;11.522;2022-10-16T07:08:30;10.10;;;4.67;;
16520;SDS011;8373;48.110;11.522;2022-10-16T07:10:59;12.73;;;4.80;;
16520;SDS011;8373;48.110;11.522;2022-10-16T07:13:27;16.83;;;4.47;;
16520;SDS011;8373;48.110;11.522;2022-10-16T07:15:54;11.23;;;3.63;;
16520;SDS011;8373;48.110;11.522;2022-10-16T07:18:21;22.47;;;5.23;;
16520;SDS011;8373;48.110;11.522;2022-10-16T07:20:51;12.13;;;4.47;;
16520;SDS011;8373;48.110;11.522;2022-10-16T07:23:18;13.10;;;4.90;;
16520;SDS011;8373;48.110;11.522;2022-10-16T07:25:45;12.17;;;5.03;;
16520;SDS011;8373;48.110;11.522;2022-10-16T07:28:20;10.30;;;5.07;;
16520;SDS011;8373;48.110;11.522;2022-10-16T07:30:48;14.73;;;4.40;;
16520;SDS011;8373;48.110;11.522;2022-10-16T07:33:15;10.53;;;4.13;;
16520;SDS011;8373;48.110;11.522;2022-10-16T07:35:47;14.03;;;4.50;;
16520;SDS011;8373;48.110;11.522;2022-10-16T07:38:15;10.40;;;4.70;;
16520;SDS011;8373;48.110;11.522;2022-10-16T07:40:42;14.13;;;4.90;;
16520;SDS011;8373;48.110;11.522;2022-10-16T07:43:09;9.50;;;3.60;;
16520;SDS011;8373;48.110;11.522;2022-10-16T07:45:37;12.43;;;4.57;;
16520;SDS011;8373;48.110;11.522;2022-10-16T07:48:04;11.37;;;4.57;;
16520;SDS011;8373;48.110;11.522;2022-10-16T07:50:31;10.10;;;4.23;;
16520;SDS011;8373;48.110;11.522;2022-10-16T07:52:58;10.00;;;4.60;;
16520;SDS011;8373;48.110;11.522;2022-10-16T07:55:25;9.83;;;4.10;;
16520;SDS011;8373;48.110;11.522;2022-10-16T08:24:53;8.30;;;4.00;;
16520;SDS011;8373;48.110;11.522;2022-10-16T08:27:20;11.10;;;5.00;;
16520;SDS011;8373;48.110;11.522;2022-10-16T08:29:48;8.80;;;4.23;;
16520;SDS011;8373;48.110;11.522;2022-10-16T08:32:15;10.73;;;3.87;;
16520;SDS011;8373;48.110;11.522;2022-10-16T08:34:42;10.40;;;4.20;;
16520;SDS011;8373;48.110;11.522;2022-10-16T08:37:10;10.10;;;4.23;;
16520;SDS011;8373;48.110;11.522;2022-10-16T08:39:38;9.70;;;3.93;;
16520;SDS011;8373;48.110;11.522;2022-10-16T08:42:09;16.08;;;3.72;;
16520;SDS011;8373;48.110;11.522;2022-10-16T08:44:57;8.43;;;4.18;;
16520;SDS011;8373;48.110;11.522;2022-10-16T08:47:41;9.20;;;3.58;;
16520;SDS011;8373;48.110;11.522;2022-10-16T08:50:17;7.93;;;3.60;;
16520;SDS011;8373;48.110;11.522;2022-10-16T08:52:50;8.13;;;3.95;;
16520;SDS011;8373;48.110;11.522;2022-10-16T08:55:23;7.45;;;3.53;;
16520;SDS011;8373;48.110;11.522;2022-10-16T08:57:57;11.25;;;4.30;;
16520;SDS011;8373;48.110;11.522;2022-10-16T09:00:24;7.35;;;3.35;;
16520;SDS011;8373;48.110;11.522;2022-10-16T09:02:52;10.52;;;3.72;;
16520;SDS011;8373;48.110;11.522;2022-10-16T09:05:39;7.28;;;3.83;;
16520;SDS011;8373;48.110;11.522;2022-10-16T09:08:26;8.55;;;4.25;;
16520;SDS011;8373;48.110;11.522;2022-10-16T09:11:01;8.00;;;4.03;;
16520;SDS011;8373;48.110;11.522;2022-10-16T09:13:34;9.82;;;4.00;;
16520;SDS011;8373;48.110;11.522;2022-10-16T09:16:12;9.50;;;4.55;;
16520;SDS011;8373;48.110;11.522;2022-10-16T09:18:48;10.63;;;4.03;;
16520;SDS011;8373;48.110;11.522;2022-10-16T09:21:21;15.00;;;4.20;;
16520;SDS011;8373;48.110;11.522;2022-10-16T09:23:52;11.15;;;3.47;;
16520;SDS011;8373;48.110;11.522;2022-10-16T09:26:23;9.40;;;4.45;;
16520;SDS011;8373;48.110;11.522;2022-10-16T09:28:51;7.00;;;3.78;;
16520;SDS011;8373;48.110;11.522;2022-10-16T09:31:19;6.60;;;3.50;;
16520;SDS011;8373;48.110;11.522;2022-10-16T09:33:48;9.35;;;4.00;;
16520;SDS011;8373;48.110;11.522;2022-10-16T09:36:19;9.52;;;3.95;;
16520;SDS011;8373;48.110;11.522;2022-10-16T09:38:48;13.02;;;3.75;;
16520;SDS011;8373;48.110;11.522;2022-10-16T09:41:18;6.80;;;3.90;;
16520;SDS011;8373;48.110;11.522;2022-10-16T09:43:47;13.68;;;3.65;;
16520;SDS011;8373;48.110;11.522;2022-10-16T09:46:21;7.32;;;4.07;;
16520;SDS011;8373;48.110;11.522;2022-10-16T09:48:53;6.35;;;3.35;;
16520;SDS011;8373;48.110;11.522;2022-10-16T09:51:22;11.57;;;4.10;;
16520;SDS011;8373;48.110;11.522;2022-10-16T09:53:54;10.60;;;3.80;;
16520;SDS011;8373;48.110;11.522;2022-10-16T09:56:23;8.88;;;3.63;;
16520;SDS011;8373;48.110;11.522;2022-10-16T09:58:52;9.45;;;4.07;;
16520;SDS011;8373;48.110;11.522;2022-10-16T10:01:21;8.57;;;3.92;;
16520;SDS011;8373;48.110;11.522;2022-10-16T10:03:51;11.15;;;3.90;;
16520;SDS011;8373;48.110;11.522;2022-10-16T10:06:26;10.52;;;4.47;;
16520;SDS011;8373;48.110;11.522;2022-10-16T10:08:56;9.20;;;4.25;;
16520;SDS011;8373;48.110;11.522;2022-10-16T10:11:46;10.13;;;3.83;;
16520;SDS011;8373;48.110;11.522;2022-10-16T10:14:17;17.25;;;3.75;;
16520;SDS011;8373;48.110;11.522;2022-10-16T10:16:47;13.13;;;4.45;;
16520;SDS011;8373;48.110;11.522;2022-10-16T10:19:15;9.43;;;3.97;;
16520;SDS011;8373;48.110;11.522;2022-10-16T10:21:43;6.65;;;3.50;;
16520;SDS011;8373;48.110;11.522;2022-10-16T10:24:11;7.57;;;3.90;;
16520;SDS011;8373;48.110;11.522;2022-10-16T10:26:40;7.13;;;3.20;;
16520;SDS011;8373;48.110;11.522;2022-10-16T10:29:15;9.77;;;3.33;;
16520;SDS011;8373;48.110;11.522;2022-10-16T10:31:52;6.28;;;3.47;;
16520;SDS011;8373;48.110;11.522;2022-10-16T10:34:33;7.55;;;3.58;;
16520;SDS011;8373;48.110;11.522;2022-10-16T10:37:14;6.63;;;3.28;;
16520;SDS011;8373;48.110;11.522;2022-10-16T10:39:57;6.68;;;3.17;;
16520;SDS011;8373;48.110;11.522;2022-10-16T10:42:39;7.70;;;3.55;;
16520;SDS011;8373;48.110;11.522;2022-10-16T10:45:21;7.55;;;3.22;;
16520;SDS011;8373;48.110;11.522;2022-10-16T10:47:59;6.25;;;3.58;;
16520;SDS011;8373;48.110;11.522;2022-10-16T10:50:40;9.98;;;3.85;;
16520;SDS011;8373;48.110;11.522;2022-10-16T10:53:14;5.97;;;3.55;;
16520;SDS011;8373;48.110;11.522;2022-10-16T10:55:54;10.02;;;3.45;;
16520;SDS011;8373;48.110;11.522;2022-10-16T10:58:48;5.47;;;3.00;;
16520;SDS011;8373;48.110;11.522;2022-10-16T11:01:35;12.18;;;3.10;;
16520;SDS011;8373;48.110;11.522;2022-10-16T11:04:15;4.03;;;1.60;;
16520;SDS011;8373;48.110;11.522;2022-10-16T11:06:57;1.92;;;1.30;;
16520;SDS011;8373;48.110;11.522;2022-10-16T11:09:28;1.05;;;1.05;;
16520;SDS011;8373;48.110;11.522;2022-10-16T11:12:00;1.10;;;1.10;;
16520;SDS011;8373;48.110;11.522;2022-10-16T11:14:33;1.00;;;1.00;;
16520;SDS011;8373;48.110;11.522;2022-10-16T11:17:05;0.90;;;0.90;;
16520;SDS011;8373;48.110;11.522;2022-10-16T11:19:39;1.30;;;1.30;;
16520;SDS011;8373;48.110;11.522;2022-10-16T11:22:11;0.80;;;0.80;;
16520;SDS011;8373;48.110;11.522;2022-10-16T11:24:45;0.90;;;0.90;;
16520;SDS011;8373;48.110;11.522;2022-10-16T11:27:19;0.70;;;0.70;;
16520;SDS011;8373;48.110;11.522;2022-10-16T11:30:01;0.70;;;0.70;;
16520;SDS011;8373;48.110;11.522;2022-10-16T11:32:34;0.80;;;0.80;;
16520;SDS011;8373;48.110;11.522;2022-10-16T11:35:11;0.70;;;0.70;;
16520;SDS011;8373;48.110;11.522;2022-10-16T11:37:44;0.70;;;0.70;;
16520;SDS011;8373;48.110;11.522;2022-10-16T11:40:17;0.63;;;0.63;;
16520;SDS011;8373;48.110;11.522;2022-10-16T11:42:51;0.77;;;0.77;;
16520;SDS011;8373;48.110;11.522;2022-10-16T11:45:24;0.88;;;0.88;;
16520;SDS011;8373;48.110;11.522;2022-10-16T11:47:59;0.90;;;0.90;;
16520;SDS011;8373;48.110;11.522;2022-10-16T11:50:31;0.85;;;0.85;;
16520;SDS011;8373;48.110;11.522;2022-10-16T11:53:04;0.88;;;0.88;;
16520;SDS011;8373;48.110;11.522;2022-10-16T11:55:40;0.80;;;0.80;;
16520;SDS011;8373;48.110;11.522;2022-10-16T11:58:09;0.65;;;0.65;;
16520;SDS011;8373;48.110;11.522;2022-10-16T12:00:45;0.75;;;0.75;;
16520;SDS011;8373;48.110;11.522;2022-10-16T12:03:20;0.80;;;0.80;;
16520;SDS011;8373;48.110;11.522;2022-10-16T12:05:57;0.60;;;0.60;;
16520;SDS011;8373;48.110;11.522;2022-10-16T12:08:33;0.90;;;0.90;;
16520;SDS011;8373;48.110;11.522;2022-10-16T12:11:07;0.60;;;0.60;;
16520;SDS011;8373;48.110;11.522;2022-10-16T12:13:46;0.50;;;0.50;;
16520;SDS011;8373;48.110;11.522;2022-10-16T12:16:21;0.60;;;0.60;;
16520;SDS011;8373;48.110;11.522;2022-10-16T12:19:02;0.90;;;0.90;;
16520;SDS011;8373;48.110;11.522;2022-10-16T12:21:36;1.00;;;1.00;;
16520;SDS011;8373;48.110;11.522;2022-10-16T12:24:04;0.90;;;0.90;;
16520;SDS011;8373;48.110;11.522;2022-10-16T12:26:32;1.13;;;1.02;;
16520;SDS011;8373;48.110;11.522;2022-10-16T12:29:12;1.65;;;1.27;;
16520;SDS011;8373;48.110;11.522;2022-10-16T12:31:46;2.50;;;1.38;;
16520;SDS011;8373;48.110;11.522;2022-10-16T12:34:19;3.30;;;1.48;;
16520;SDS011;8373;48.110;11.522;2022-10-16T12:36:48;3.67;;;1.50;;
16520;SDS011;8373;48.110;11.522;2022-10-16T12:39:20;4.20;;;1.80;;
16520;SDS011;8373;48.110;11.522;2022-10-16T12:41:59;4.57;;;1.83;;
16520;SDS011;8373;48.110;11.522;2022-10-16T12:44:31;6.13;;;2.30;;
16520;SDS011;8373;48.110;11.522;2022-10-16T12:47:00;5.60;;;2.30;;
16520;SDS011;8373;48.110;11.522;2022-10-16T12:49:34;8.05;;;2.50;;
16520;SDS011;8373;48.110;11.522;2022-10-16T12:52:03;7.55;;;3.10;;
16520;SDS011;8373;48.110;11.522;2022-10-16T12:54:31;15.07;;;3.33;;
16520;SDS011;8373;48.110;11.522;2022-10-16T12:57:12;7.83;;;4.00;;
16520;SDS011;8373;48.110;11.522;2022-10-16T12:59:59;8.95;;;4.00;;
16520;SDS011;8373;48.110;11.522;2022-10-16T13:02:39;10.87;;;3.73;;
16520;SDS011;8373;48.110;11.522;2022-10-16T13:05:32;9.57;;;3.20;;
16520;SDS011;8373;48.110;11.522;2022-10-16T13:08:15;10.93;;;4.60;;
16520;SDS011;8373;48.110;11.522;2022-10-16T13:10:55;6.60;;;3.27;;
16520;SDS011;8373;48.110;11.522;2022-10-16T13:13:41;19.73;;;3.67;;
16520;SDS011;8373;48.110;11.522;2022-10-16T13:16:18;15.13;;;4.37;;
16520;SDS011;8373;48.110;11.522;2022-10-16T13:18:53;12.10;;;3.80;;
16520;SDS011;8373;48.110;11.522;2022-10-16T13:21:33;7.00;;;3.30;;
16520;SDS011;8373;48.110;11.522;2022-10-16T13:24:11;11.00;;;4.70;;
16520;SDS011;8373;48.110;11.522;2022-10-16T13:26:48;9.83;;;4.00;;
16520;SDS011;8373;48.110;11.522;2022-10-16T13:29:21;9.53;;;3.30;;
16520;SDS011;8373;48.110;11.522;2022-10-16T13:31:49;9.83;;;4.20;;
16520;SDS011;8373;48.110;11.522;2022-10-16T13:34:17;16.17;;;3.60;;
16520;SDS011;8373;48.110;11.522;2022-10-16T13:36:49;10.93;;;3.90;;
16520;SDS011;8373;48.110;11.522;2022-10-16T13:39:20;10.33;;;3.53;;
16520;SDS011;8373;48.110;11.522;2022-10-16T13:41:57;9.40;;;3.80;;
16520;SDS011;8373;48.110;11.522;2022-10-16T13:44:27;10.17;;;3.67;;
16520;SDS011;8373;48.110;11.522;2022-10-16T13:47:01;6.60;;;3.33;;
16520;SDS011;8373;48.110;11.522;2022-10-16T13:49:29;9.33;;;3.70;;
16520;SDS011;8373;48.110;11.522;2022-10-16T13:51:58;6.70;;;2.87;;
16520;SDS011;8373;48.110;11.522;2022-10-16T13:54:26;8.47;;;2.97;;
16520;SDS011;8373;48.110;11.522;2022-10-16T13:56:54;7.43;;;2.77;;
16520;SDS011;8373;48.110;11.522;2022-10-16T13:59:23;7.43;;;3.53;;
16520;SDS011;8373;48.110;11.522;2022-10-16T14:01:51;6.93;;;2.83;;
16520;SDS011;8373;48.110;11.522;2022-10-16T14:04:20;11.00;;;3.30;;
16520;SDS011;8373;48.110;11.522;2022-10-16T14:06:49;6.50;;;3.20;;
16520;SDS011;8373;48.110;11.522;2022-10-16T14:09:22;6.00;;;2.80;;
16520;SDS011;8373;48.110;11.522;2022-10-16T14:11:52;6.10;;;3.33;;
16520;SDS011;8373;48.110;11.522;2022-10-16T14:14:20;5.37;;;2.77;;
16520;SDS011;8373;48.110;11.522;2022-10-16T14:16:48;6.30;;;3.07;;
16520;SDS011;8373;48.110;11.522;2022-10-16T14:19:18;6.17;;;2.57;;
16520;SDS011;8373;48.110;11.522;2022-10-16T14:21:48;6.47;;;3.00;;
16520;SDS011;8373;48.110;11.522;2022-10-16T14:24:24;6.17;;;3.03;;
16520;SDS011;8373;48.110;11.522;2022-10-16T14:26:57;5.73;;;2.90;;
16520;SDS011;8373;48.110;11.522;2022-10-16T14:29:25;7.40;;;2.93;;
16520;SDS011;8373;48.110;11.522;2022-10-16T14:31:54;5.27;;;2.47;;
16520;SDS011;8373;48.110;11.522;2022-10-16T14:34:23;7.87;;;3.07;;
16520;SDS011;8373;48.110;11.522;2022-10-16T14:36:55;5.80;;;2.77;;
16520;SDS011;8373;48.110;11.522;2022-10-16T14:39:27;7.00;;;3.20;;
16520;SDS011;8373;48.110;11.522;2022-10-16T14:41:55;6.60;;;3.10;;
16520;SDS011;8373;48.110;11.522;2022-10-16T14:44:26;8.07;;;2.90;;
16520;SDS011;8373;48.110;11.522;2022-10-16T14:46:55;6.30;;;3.03;;
16520;SDS011;8373;48.110;11.522;2022-10-16T14:49:24;8.50;;;3.20;;
16520;SDS011;8373;48.110;11.522;2022-10-16T14:51:53;7.60;;;3.13;;
16520;SDS011;8373;48.110;11.522;2022-10-16T14:54:20;8.10;;;3.13;;
16520;SDS011;8373;48.110;11.522;2022-10-16T14:56:49;9.77;;;3.10;;
16520;SDS011;8373;48.110;11.522;2022-10-16T14:59:19;6.53;;;2.93;;
16520;SDS011;8373;48.110;11.522;2022-10-16T15:01:51;8.23;;;3.53;;
16520;SDS011;8373;48.110;11.522;2022-10-16T15:04:18;7.40;;;2.93;;
16520;SDS011;8373;48.110;11.522;2022-10-16T15:06:45;11.43;;;3.70;;
16520;SDS011;8373;48.110;11.522;2022-10-16T15:09:12;6.73;;;3.10;;
16520;SDS011;8373;48.110;11.522;2022-10-16T15:11:39;7.53;;;3.07;;
16520;SDS011;8373;48.110;11.522;2022-10-16T15:14:09;6.87;;;3.20;;
16520;SDS011;8373;48.110;11.522;2022-10-16T15:16:38;12.57;;;3.30;;
16520;SDS011;8373;48.110;11.522;2022-10-16T15:19:05;7.67;;;3.37;;
16520;SDS011;8373;48.110;11.522;2022-10-16T15:21:32;8.60;;;3.43;;
16520;SDS011;8373;48.110;11.522;2022-10-16T15:23:59;8.27;;;3.00;;
16520;SDS011;8373;48.110;11.522;2022-10-16T15:26:28;9.50;;;3.93;;
16520;SDS011;8373;48.110;11.522;2022-10-16T15:28:56;9.40;;;5.03;;
16520;SDS011;8373;48.110;11.522;2022-10-16T15:31:24;8.23;;;3.33;;
16520;SDS011;8373;48.110;11.522;2022-10-16T15:33:51;8.27;;;3.40;;
16520;SDS011;8373;48.110;11.522;2022-10-16T15:36:26;8.37;;;3.87;;
16520;SDS011;8373;48.110;11.522;2022-10-16T15:38:54;8.80;;;3.70;;
16520;SDS011;8373;48.110;11.522;2022-10-16T15:41:21;15.83;;;3.60;;
16520;SDS011;8373;48.110;11.522;2022-10-16T15:43:49;11.10;;;3.60;;
16520;SDS011;8373;48.110;11.522;2022-10-16T15:46:17;8.40;;;3.50;;
16520;SDS011;8373;48.110;11.522;2022-10-16T15:48:47;8.57;;;3.83;;
16520;SDS011;8373;48.110;11.522;2022-10-16T15:51:14;7.80;;;3.53;;
16520;SDS011;8373;48.110;11.522;2022-10-16T15:53:42;9.40;;;4.50;;
16520;SDS011;8373;48.110;11.522;2022-10-16T15:56:11;9.17;;;3.90;;
16520;SDS011;8373;48.110;11.522;2022-10-16T15:58:39;10.40;;;4.83;;
16520;SDS011;8373;48.110;11.522;2022-10-16T16:01:06;15.70;;;3.80;;
16520;SDS011;8373;48.110;11.522;2022-10-16T16:03:35;6.95;;;3.25;;
16520;SDS011;8373;48.110;11.522;2022-10-16T16:08:32;10.23;;;4.40;;
16520;SDS011;8373;48.110;11.522;2022-10-16T16:11:00;11.80;;;3.60;;
16520;SDS011;8373;48.110;11.522;2022-10-16T16:13:28;13.73;;;3.70;;
16520;SDS011;8373;48.110;11.522;2022-10-16T16:15:55;12.77;;;3.67;;
16520;SDS011;8373;48.110;11.522;2022-10-16T16:18:23;10.27;;;3.60;;
16520;SDS011;8373;48.110;11.522;2022-10-16T16:20:50;8.57;;;4.13;;
16520;SDS011;8373;48.110;11.522;2022-10-16T16:23:18;9.20;;;3.63;;
16520;SDS011;8373;48.110;11.522;2022-10-16T16:26:01;8.10;;;4.10;;
16520;SDS011;8373;48.110;11.522;2022-10-16T16:28:29;12.20;;;4.73;;
16520;SDS011;8373;48.110;11.522;2022-10-16T16:30:56;10.17;;;4.50;;
16520;SDS011;8373;48.110;11.522;2022-10-16T16:33:23;9.17;;;4.17;;
16520;SDS011;8373;48.110;11.522;2022-10-16T16:35:50;14.23;;;5.83;;
16520;SDS011;8373;48.110;11.522;2022-10-16T16:38:23;10.57;;;4.83;;
16520;SDS011;8373;48.110;11.522;2022-10-16T16:40:50;12.13;;;5.67;;
16520;SDS011;8373;48.110;11.522;2022-10-16T16:43:17;13.33;;;4.90;;
16520;SDS011;8373;48.110;11.522;2022-10-16T16:45:44;14.33;;;5.90;;
16520;SDS011;8373;48.110;11.522;2022-10-16T16:48:11;19.23;;;7.37;;
16520;SDS011;8373;48.110;11.522;2022-10-16T16:50:38;14.33;;;8.30;;
16520;SDS011;8373;48.110;11.522;2022-10-16T16:53:05;12.40;;;6.70;;
16520;SDS011;8373;48.110;11.522;2022-10-16T16:55:33;12.57;;;5.50;;
16520;SDS011;8373;48.110;11.522;2022-10-16T16:58:01;11.93;;;5.03;;
16520;SDS011;8373;48.110;11.522;2022-10-16T17:00:29;13.47;;;5.90;;
16520;SDS011;8373;48.110;11.522;2022-10-16T17:02:57;15.20;;;5.73;;
16520;SDS011;8373;48.110;11.522;2022-10-16T17:05:24;10.13;;;5.07;;
16520;SDS011;8373;48.110;11.522;2022-10-16T17:07:51;9.80;;;5.20;;
16520;SDS011;8373;48.110;11.522;2022-10-16T17:10:18;10.50;;;5.03;;
16520;SDS011;8373;48.110;11.522;2022-10-16T17:12:46;9.53;;;4.80;;
16520;SDS011;8373;48.110;11.522;2022-10-16T17:15:13;14.10;;;5.57;;
16520;SDS011;8373;48.110;11.522;2022-10-16T17:17:40;19.60;;;5.67;;
16520;SDS011;8373;48.110;11.522;2022-10-16T17:20:08;11.67;;;5.40;;
16520;SDS011;8373;48.110;11.522;2022-10-16T17:22:37;12.73;;;5.50;;
16520;SDS011;8373;48.110;11.522;2022-10-16T17:25:04;14.97;;;6.07;;
16520;SDS011;8373;48.110;11.522;2022-10-16T17:27:32;11.30;;;5.33;;
16520;SDS011;8373;48.110;11.522;2022-10-16T17:30:02;13.40;;;6.13;;
16520;SDS011;8373;48.110;11.522;2022-10-16T17:32:30;18.43;;;6.33;;
16520;SDS011;8373;48.110;11.522;2022-10-16T17:34:57;19.23;;;6.80;;
16520;SDS011;8373;48.110;11.522;2022-10-16T17:37:24;12.93;;;5.63;;
16520;SDS011;8373;48.110;11.522;2022-10-16T17:39:51;13.83;;;6.37;;
16520;SDS011;8373;48.110;11.522;2022-10-16T17:42:18;17.47;;;6.50;;
16520;SDS011;8373;48.110;11.522;2022-10-16T17:44:45;17.50;;;7.20;;
16520;SDS011;8373;48.110;11.522;2022-10-16T17:47:13;16.77;;;6.87;;
16520;SDS011;8373;48.110;11.522;2022-10-16T17:49:40;14.80;;;7.10;;
16520;SDS011;8373;48.110;11.522;2022-10-16T17:52:07;17.47;;;7.80;;
16520;SDS011;8373;48.110;11.522;2022-10-16T17:54:34;16.10;;;8.17;;
16520;SDS011;8373;48.110;11.522;2022-10-16T17:57:01;15.20;;;7.07;;
16520;SDS011;8373;48.110;11.522;2022-10-16T17:59:28;13.27;;;6.53;;
16520;SDS011;8373;48.110;11.522;2022-10-16T18:01:55;18.57;;;8.23;;
16520;SDS011;8373;48.110;11.522;2022-10-16T18:04:23;45.57;;;9.23;;
16520;SDS011;8373;48.110;11.522;2022-10-16T18:06:50;21.47;;;7.70;;
16520;SDS011;8373;48.110;11.522;2022-10-16T18:09:20;15.43;;;7.30;;
16520;SDS011;8373;48.110;11.522;2022-10-16T18:11:47;13.93;;;6.57;;
16520;SDS011;8373;48.110;11.522;2022-10-16T18:14:19;19.20;;;6.43;;
16520;SDS011;8373;48.110;11.522;2022-10-16T18:16:46;13.27;;;6.53;;
16520;SDS011;8373;48.110;11.522;2022-10-16T18:22:08;18.40;;;7.63;;
16520;SDS011;8373;48.110;11.522;2022-10-16T18:24:35;16.40;;;6.03;;
16520;SDS011;8373;48.110;11.522;2022-10-16T18:27:02;18.03;;;7.07;;
16520;SDS011;8373;48.110;11.522;2022-10-16T18:29:29;18.50;;;7.70;;
16520;SDS011;8373;48.110;11.522;2022-10-16T18:31:56;16.87;;;8.20;;
16520;SDS011;8373;48.110;11.522;2022-10-16T18:34:23;15.40;;;8.73;;
16520;SDS011;8373;48.110;11.522;2022-10-16T18:36:51;14.10;;;7.50;;
16520;SDS011;8373;48.110;11.522;2022-10-16T18:39:20;15.53;;;7.50;;
16520;SDS011;8373;48.110;11.522;2022-10-16T18:41:48;17.60;;;8.10;;
16520;SDS011;8373;48.110;11.522;2022-10-16T18:44:19;17.10;;;7.63;;
16520;SDS011;8373;48.110;11.522;2022-10-16T18:46:46;19.80;;;7.37;;
16520;SDS011;8373;48.110;11.522;2022-10-16T18:49:13;17.07;;;8.47;;
16520;SDS011;8373;48.110;11.522;2022-10-16T18:51:40;18.23;;;7.60;;
16520;SDS011;8373;48.110;11.522;2022-10-16T18:54:09;20.77;;;9.17;;
16520;SDS011;8373;48.110;11.522;2022-10-16T18:56:38;20.00;;;9.47;;
16520;SDS011;8373;48.110;11.522;2022-10-16T18:59:06;23.03;;;8.57;;
16520;SDS011;8373;48.110;11.522;2022-10-16T19:01:35;21.07;;;10.20;;
16520;SDS011;8373;48.110;11.522;2022-10-16T19:04:04;21.90;;;9.90;;
16520;SDS011;8373;48.110;11.522;2022-10-16T19:06:34;24.40;;;9.13;;
16520;SDS011;8373;48.110;11.522;2022-10-16T19:09:02;19.73;;;8.30;;
16520;SDS011;8373;48.110;11.522;2022-10-16T19:11:30;21.03;;;9.37;;
16520;SDS011;8373;48.110;11.522;2022-10-16T19:13:59;17.10;;;7.50;;
16520;SDS011;8373;48.110;11.522;2022-10-16T19:16:27;20.90;;;7.13;;
16520;SDS011;8373;48.110;11.522;2022-10-16T19:18:56;16.27;;;7.90;;
16520;SDS011;8373;48.110;11.522;2022-10-16T19:21:24;20.13;;;9.13;;
16520;SDS011;8373;48.110;11.522;2022-10-16T19:23:53;20.57;;;8.43;;
16520;SDS011;8373;48.110;11.522;2022-10-16T19:26:21;12.77;;;6.83;;
16520;SDS011;8373;48.110;11.522;2022-10-16T19:28:49;22.90;;;8.40;;
16520;SDS011;8373;48.110;11.522;2022-10-16T19:31:19;15.10;;;8.53;;